Terminal Aerodrome Forecast
Issued by NWS Birmingham, AL

Home | Current Version | Previous Version | Text Only | Print | Product List | Glossary On
Versions: 1 2 3 4 5 6 7 8 9 10 11 12 13 14 15 16 17 18 19 20 21 22
394
FTUS44 KBMX 310520
TAFBHM
TAF
KBHM 310520Z 3106/0106 VRB03KT P6SM BKN150
     FM311500 26006KT P6SM SCT050 SCT250
     FM311900 29006KT P6SM VCTS BKN050CB=

USA.gov is the U.S. government's official web portal to all federal, state and local government web resources and services.